sensor_id;sensor_type;location;lat;lon;timestamp;pressure;altitude;pressure_sealevel;temperature
77223;BMP280;66218;48.928;9.140;2022-12-29T00:01:19;98043.09;;;10.99
77223;BMP280;66218;48.928;9.140;2022-12-29T00:03:47;98041.78;;;11.02
77223;BMP280;66218;48.928;9.140;2022-12-29T00:06:13;98041.84;;;11.04
77223;BMP280;66218;48.928;9.140;2022-12-29T00:08:38;98044.03;;;11.12
77223;BMP280;66218;48.928;9.140;2022-12-29T00:11:09;98044.03;;;11.12
77223;BMP280;66218;48.928;9.140;2022-12-29T00:13:35;98027.38;;;11.08
77223;BMP280;66218;48.928;9.140;2022-12-29T00:16:19;98019.19;;;11.12
77223;BMP280;66218;48.928;9.140;2022-12-29T00:18:45;98020.59;;;11.13
77223;BMP280;66218;48.928;9.140;2022-12-29T00:21:14;98019.22;;;11.14
77223;BMP280;66218;48.928;9.140;2022-12-29T00:23:59;98014.44;;;11.16
77223;BMP280;66218;48.928;9.140;2022-12-29T00:26:57;98010.25;;;11.13
77223;BMP280;66218;48.928;9.140;2022-12-29T00:29:42;98006.78;;;11.13
77223;BMP280;66218;48.928;9.140;2022-12-29T00:32:26;98011.56;;;11.10
77223;BMP280;66218;48.928;9.140;2022-12-29T00:35:11;98003.97;;;11.09
77223;BMP280;66218;48.928;9.140;2022-12-29T00:37:43;98008.06;;;11.08
77223;BMP280;66218;48.928;9.140;2022-12-29T00:40:29;98007.41;;;11.09
77223;BMP280;66218;48.928;9.140;2022-12-29T00:43:13;98007.41;;;11.09
77223;BMP280;66218;48.928;9.140;2022-12-29T00:45:57;98003.19;;;11.06
77223;BMP280;66218;48.928;9.140;2022-12-29T00:48:22;97990.09;;;11.07
77223;BMP280;66218;48.928;9.140;2022-12-29T00:51:06;97994.22;;;11.06
77223;BMP280;66218;48.928;9.140;2022-12-29T00:53:32;97997.69;;;11.06
77223;BMP280;66218;48.928;9.140;2022-12-29T00:55:58;97998.38;;;11.07
77223;BMP280;66218;48.928;9.140;2022-12-29T00:58:23;97990.16;;;11.09
77223;BMP280;66218;48.928;9.140;2022-12-29T01:00:48;97996.53;;;11.17
77223;BMP280;66218;48.928;9.140;2022-12-29T01:03:13;97996.53;;;11.17
77223;BMP280;66218;48.928;9.140;2022-12-29T01:05:39;98002.03;;;11.17
77223;BMP280;66218;48.928;9.140;2022-12-29T01:08:04;98003.44;;;11.20
77223;BMP280;66218;48.928;9.140;2022-12-29T01:10:29;98002.13;;;11.23
77223;BMP280;66218;48.928;9.140;2022-12-29T01:12:55;98000.06;;;11.24
77223;BMP280;66218;48.928;9.140;2022-12-29T01:15:20;98018.94;;;11.36
77223;BMP280;66218;48.928;9.140;2022-12-29T01:17:45;98018.94;;;11.36
77223;BMP280;66218;48.928;9.140;2022-12-29T01:20:11;98019.56;;;11.32
77223;BMP280;66218;48.928;9.140;2022-12-29T01:22:37;98012.72;;;11.35
77223;BMP280;66218;48.928;9.140;2022-12-29T01:25:03;98015.50;;;11.37
77223;BMP280;66218;48.928;9.140;2022-12-29T01:27:28;98026.63;;;11.41
77223;BMP280;66218;48.928;9.140;2022-12-29T01:29:54;98026.69;;;11.45
77223;BMP280;66218;48.928;9.140;2022-12-29T01:32:19;98033.00;;;11.50
77223;BMP280;66218;48.928;9.140;2022-12-29T01:34:44;98033.00;;;11.50
77223;BMP280;66218;48.928;9.140;2022-12-29T01:37:10;98021.25;;;11.49
77223;BMP280;66218;48.928;9.140;2022-12-29T01:39:35;98039.94;;;11.53
77223;BMP280;66218;48.928;9.140;2022-12-29T01:42:01;98039.94;;;11.53
77223;BMP280;66218;48.928;9.140;2022-12-29T01:44:52;98023.31;;;11.49
77223;BMP280;66218;48.928;9.140;2022-12-29T01:47:42;98016.41;;;11.48
77223;BMP280;66218;48.928;9.140;2022-12-29T01:50:11;98035.09;;;11.51
77223;BMP280;66218;48.928;9.140;2022-12-29T01:52:40;98035.09;;;11.51
77223;BMP280;66218;48.928;9.140;2022-12-29T01:55:08;98031.53;;;11.47
77223;BMP280;66218;48.928;9.140;2022-12-29T01:57:41;98026.06;;;11.49
77223;BMP280;66218;48.928;9.140;2022-12-29T02:00:10;98011.59;;;11.50
77223;BMP280;66218;48.928;9.140;2022-12-29T02:02:36;98015.78;;;11.53
77223;BMP280;66218;48.928;9.140;2022-12-29T02:05:10;98012.31;;;11.53
77223;BMP280;66218;48.928;9.140;2022-12-29T02:07:37;98003.22;;;11.46
77223;BMP280;66218;48.928;9.140;2022-12-29T02:10:03;97997.09;;;11.50
77223;BMP280;66218;48.928;9.140;2022-12-29T02:12:28;98005.44;;;11.54
77223;BMP280;66218;48.928;9.140;2022-12-29T02:14:57;98005.44;;;11.54
77223;BMP280;66218;48.928;9.140;2022-12-29T02:22:59;97989.53;;;11.52
77223;BMP280;66218;48.928;9.140;2022-12-29T02:28:39;97989.50;;;11.50
77223;BMP280;66218;48.928;9.140;2022-12-29T02:37:03;97986.03;;;11.50
77223;BMP280;66218;48.928;9.140;2022-12-29T02:45:54;97977.81;;;11.54
77223;BMP280;66218;48.928;9.140;2022-12-29T02:48:54;97977.75;;;11.50
77223;BMP280;66218;48.928;9.140;2022-12-29T02:51:26;97977.19;;;11.59
77223;BMP280;66218;48.928;9.140;2022-12-29T02:53:55;97977.19;;;11.59
77223;BMP280;66218;48.928;9.140;2022-12-29T02:56:39;97979.94;;;11.57
77223;BMP280;66218;48.928;9.140;2022-12-29T02:59:05;97973.03;;;11.58
77223;BMP280;66218;48.928;9.140;2022-12-29T03:06:38;97971.75;;;11.64
77223;BMP280;66218;48.928;9.140;2022-12-29T03:09:17;97966.94;;;11.64
77223;BMP280;66218;48.928;9.140;2022-12-29T03:11:52;97969.03;;;11.68
77223;BMP280;66218;48.928;9.140;2022-12-29T03:14:46;97967.72;;;11.71
77223;BMP280;66218;48.928;9.140;2022-12-29T03:17:55;97963.00;;;11.77
77223;BMP280;66218;48.928;9.140;2022-12-29T03:20:32;97957.56;;;11.85
77223;BMP280;66218;48.928;9.140;2022-12-29T03:23:00;97952.19;;;11.96
77223;BMP280;66218;48.928;9.140;2022-12-29T03:25:35;97935.69;;;12.02
77223;BMP280;66218;48.928;9.140;2022-12-29T03:28:30;97945.47;;;12.09
77223;BMP280;66218;48.928;9.140;2022-12-29T03:30:57;97949.13;;;12.26
77223;BMP280;66218;48.928;9.140;2022-12-29T03:33:25;97949.13;;;12.26
77223;BMP280;66218;48.928;9.140;2022-12-29T03:35:54;97938.22;;;12.40
77223;BMP280;66218;48.928;9.140;2022-12-29T03:38:35;97936.25;;;12.47
77223;BMP280;66218;48.928;9.140;2022-12-29T03:41:10;97936.25;;;12.47
77223;BMP280;66218;48.928;9.140;2022-12-29T03:43:36;97934.19;;;12.49
77223;BMP280;66218;48.928;9.140;2022-12-29T03:46:02;97930.78;;;12.51
77223;BMP280;66218;48.928;9.140;2022-12-29T03:48:27;97927.31;;;12.54
77223;BMP280;66218;48.928;9.140;2022-12-29T03:50:52;97928.09;;;12.61
77223;BMP280;66218;48.928;9.140;2022-12-29T03:53:18;97928.09;;;12.61
77223;BMP280;66218;48.928;9.140;2022-12-29T03:55:43;97932.22;;;12.58
77223;BMP280;66218;48.928;9.140;2022-12-29T03:58:08;97927.41;;;12.60
77223;BMP280;66218;48.928;9.140;2022-12-29T04:00:34;97924.63;;;12.60
77223;BMP280;66218;48.928;9.140;2022-12-29T04:02:59;97930.88;;;12.61
77223;BMP280;66218;48.928;9.140;2022-12-29T04:05:24;97924.63;;;12.58
77223;BMP280;66218;48.928;9.140;2022-12-29T04:07:50;97934.31;;;12.59
77223;BMP280;66218;48.928;9.140;2022-12-29T04:10:15;97917.63;;;12.51
77223;BMP280;66218;48.928;9.140;2022-12-29T04:12:40;97930.69;;;12.44
77223;BMP280;66218;48.928;9.140;2022-12-29T04:15:07;97930.63;;;12.40
77223;BMP280;66218;48.928;9.140;2022-12-29T04:17:32;97931.31;;;12.41
77223;BMP280;66218;48.928;9.140;2022-12-29T04:19:58;97928.59;;;12.43
77223;BMP280;66218;48.928;9.140;2022-12-29T04:22:43;97931.41;;;12.45
77223;BMP280;66218;48.928;9.140;2022-12-29T04:25:09;97937.66;;;12.50
77223;BMP280;66218;48.928;9.140;2022-12-29T04:27:34;97927.31;;;12.54
77223;BMP280;66218;48.928;9.140;2022-12-29T04:29:59;97930.16;;;12.58
77223;BMP280;66218;48.928;9.140;2022-12-29T04:32:25;97930.16;;;12.60
77223;BMP280;66218;48.928;9.140;2022-12-29T04:34:50;97926.03;;;12.61
77223;BMP280;66218;48.928;9.140;2022-12-29T04:37:16;97921.13;;;12.56
77223;BMP280;66218;48.928;9.140;2022-12-29T04:39:41;97893.91;;;12.34
77223;BMP280;66218;48.928;9.140;2022-12-29T04:42:07;97893.91;;;12.34
77223;BMP280;66218;48.928;9.140;2022-12-29T04:44:32;97899.25;;;12.20
77223;BMP280;66218;48.928;9.140;2022-12-29T04:46:57;97904.00;;;12.09
77223;BMP280;66218;48.928;9.140;2022-12-29T04:49:23;97908.06;;;12.04
77223;BMP280;66218;48.928;9.140;2022-12-29T04:51:48;97899.03;;;12.01
77223;BMP280;66218;48.928;9.140;2022-12-29T04:54:13;97894.88;;;12.00
77223;BMP280;66218;48.928;9.140;2022-12-29T04:56:38;97896.97;;;12.00
77223;BMP280;66218;48.928;9.140;2022-12-29T04:59:04;97902.53;;;12.04
77223;BMP280;66218;48.928;9.140;2022-12-29T05:01:29;97906.66;;;12.01
77223;BMP280;66218;48.928;9.140;2022-12-29T05:03:54;97899.66;;;11.98
77223;BMP280;66218;48.928;9.140;2022-12-29T05:06:20;97901.00;;;11.93
77223;BMP280;66218;48.928;9.140;2022-12-29T05:08:45;97889.88;;;11.86
77223;BMP280;66218;48.928;9.140;2022-12-29T05:11:10;97896.69;;;11.79
77223;BMP280;66218;48.928;9.140;2022-12-29T05:13:36;97894.50;;;11.72
77223;BMP280;66218;48.928;9.140;2022-12-29T05:16:01;97900.63;;;11.64
77223;BMP280;66218;48.928;9.140;2022-12-29T05:18:27;97900.38;;;11.50
77223;BMP280;66218;48.928;9.140;2022-12-29T05:20:52;97900.38;;;11.50
77223;BMP280;66218;48.928;9.140;2022-12-29T05:23:17;97906.41;;;11.38
77223;BMP280;66218;48.928;9.140;2022-12-29T05:25:43;97906.41;;;11.38
77223;BMP280;66218;48.928;9.140;2022-12-29T05:28:10;97905.63;;;11.32
77223;BMP280;66218;48.928;9.140;2022-12-29T05:30:35;97918.75;;;11.31
77223;BMP280;66218;48.928;9.140;2022-12-29T05:33:00;97910.47;;;11.33
77223;BMP280;66218;48.928;9.140;2022-12-29T05:35:26;97911.97;;;11.40
77223;BMP280;66218;48.928;9.140;2022-12-29T05:37:51;97918.47;;;11.59
77223;BMP280;66218;48.928;9.140;2022-12-29T05:40:17;97919.38;;;11.74
77223;BMP280;66218;48.928;9.140;2022-12-29T05:42:42;97919.38;;;11.74
77223;BMP280;66218;48.928;9.140;2022-12-29T05:45:08;97905.66;;;11.80
77223;BMP280;66218;48.928;9.140;2022-12-29T05:47:33;97907.91;;;11.94
77223;BMP280;66218;48.928;9.140;2022-12-29T05:49:59;97907.38;;;12.03
77223;BMP280;66218;48.928;9.140;2022-12-29T05:52:25;97907.50;;;12.15
77223;BMP280;66218;48.928;9.140;2022-12-29T05:54:50;97910.41;;;12.26
77223;BMP280;66218;48.928;9.140;2022-12-29T05:57:15;97897.34;;;12.30
77223;BMP280;66218;48.928;9.140;2022-12-29T05:59:41;97896.84;;;12.48
77223;BMP280;66218;48.928;9.140;2022-12-29T06:02:06;97896.84;;;12.48
77223;BMP280;66218;48.928;9.140;2022-12-29T06:04:31;97890.66;;;12.52
77223;BMP280;66218;48.928;9.140;2022-12-29T06:06:57;97886.56;;;12.59
77223;BMP280;66218;48.928;9.140;2022-12-29T06:09:22;97885.88;;;12.60
77223;BMP280;66218;48.928;9.140;2022-12-29T06:11:47;97894.88;;;12.59
77223;BMP280;66218;48.928;9.140;2022-12-29T06:14:13;97910.81;;;12.60
77223;BMP280;66218;48.928;9.140;2022-12-29T06:16:38;97908.03;;;12.62
77223;BMP280;66218;48.928;9.140;2022-12-29T06:19:03;97931.00;;;12.73
77223;BMP280;66218;48.928;9.140;2022-12-29T06:21:29;97928.94;;;12.75
77223;BMP280;66218;48.928;9.140;2022-12-29T06:23:54;97928.94;;;12.75
77223;BMP280;66218;48.928;9.140;2022-12-29T06:26:19;97923.38;;;12.71
77223;BMP280;66218;48.928;9.140;2022-12-29T06:28:45;97921.31;;;12.74
77223;BMP280;66218;48.928;9.140;2022-12-29T06:31:10;97927.59;;;12.79
77223;BMP280;66218;48.928;9.140;2022-12-29T06:33:37;97934.56;;;12.82
77223;BMP280;66218;48.928;9.140;2022-12-29T06:36:02;97919.38;;;12.87
77223;BMP280;66218;48.928;9.140;2022-12-29T06:38:27;97913.13;;;12.84
77223;BMP280;66218;48.928;9.140;2022-12-29T06:40:53;97924.91;;;12.85
77223;BMP280;66218;48.928;9.140;2022-12-29T06:43:18;97924.91;;;12.85
77223;BMP280;66218;48.928;9.140;2022-12-29T06:45:43;97922.09;;;12.81
77223;BMP280;66218;48.928;9.140;2022-12-29T06:48:09;97919.38;;;12.87
77223;BMP280;66218;48.928;9.140;2022-12-29T06:50:34;97922.16;;;12.89
77223;BMP280;66218;48.928;9.140;2022-12-29T06:52:59;97922.84;;;12.87
77223;BMP280;66218;48.928;9.140;2022-12-29T06:55:25;97920.06;;;12.87
77223;BMP280;66218;48.928;9.140;2022-12-29T06:57:54;97920.06;;;12.87
77223;BMP280;66218;48.928;9.140;2022-12-29T07:00:19;97916.53;;;12.79
77223;BMP280;66218;48.928;9.140;2022-12-29T07:02:45;97917.91;;;12.78
77223;BMP280;66218;48.928;9.140;2022-12-29T07:05:10;97910.94;;;12.72
77223;BMP280;66218;48.928;9.140;2022-12-29T07:07:36;97915.00;;;12.67
77223;BMP280;66218;48.928;9.140;2022-12-29T07:10:02;97906.72;;;12.65
77223;BMP280;66218;48.928;9.140;2022-12-29T07:12:27;97912.09;;;12.51
77223;BMP280;66218;48.928;9.140;2022-12-29T07:14:52;97912.09;;;12.51
77223;BMP280;66218;48.928;9.140;2022-12-29T07:17:18;97907.81;;;12.38
77223;BMP280;66218;48.928;9.140;2022-12-29T07:19:43;97915.91;;;12.24
77223;BMP280;66218;48.928;9.140;2022-12-29T07:22:09;97915.91;;;12.24
77223;BMP280;66218;48.928;9.140;2022-12-29T07:24:35;97925.47;;;12.14
77223;BMP280;66218;48.928;9.140;2022-12-29T07:27:00;97925.69;;;12.33
77223;BMP280;66218;48.928;9.140;2022-12-29T07:29:25;97914.00;;;12.38
77223;BMP280;66218;48.928;9.140;2022-12-29T07:31:51;97914.00;;;12.38
77223;BMP280;66218;48.928;9.140;2022-12-29T07:34:16;97916.09;;;12.38
77223;BMP280;66218;48.928;9.140;2022-12-29T07:36:41;97918.88;;;12.40
77223;BMP280;66218;48.928;9.140;2022-12-29T07:39:07;97919.53;;;12.38
77223;BMP280;66218;48.928;9.140;2022-12-29T07:41:32;97919.53;;;12.38
77223;BMP280;66218;48.928;9.140;2022-12-29T07:43:57;97925.78;;;12.39
77223;BMP280;66218;48.928;9.140;2022-12-29T07:46:23;97925.78;;;12.39
77223;BMP280;66218;48.928;9.140;2022-12-29T07:48:48;97912.59;;;12.35
77223;BMP280;66218;48.928;9.140;2022-12-29T07:51:13;97927.16;;;12.40
77223;BMP280;66218;48.928;9.140;2022-12-29T07:53:39;97927.16;;;12.40
77223;BMP280;66218;48.928;9.140;2022-12-29T07:56:04;97918.81;;;12.36
77223;BMP280;66218;48.928;9.140;2022-12-29T07:58:30;97925.06;;;12.36
77223;BMP280;66218;48.928;9.140;2022-12-29T08:00:55;97929.25;;;12.37
77223;BMP280;66218;48.928;9.140;2022-12-29T08:03:21;97925.78;;;12.41
77223;BMP280;66218;48.928;9.140;2022-12-29T08:05:46;97926.50;;;12.41
77223;BMP280;66218;48.928;9.140;2022-12-29T08:08:12;97925.16;;;12.42
77223;BMP280;66218;48.928;9.140;2022-12-29T08:10:37;97931.41;;;12.45
77223;BMP280;66218;48.928;9.140;2022-12-29T08:13:02;97936.25;;;12.47
77223;BMP280;66218;48.928;9.140;2022-12-29T08:15:28;97945.25;;;12.49
77223;BMP280;66218;48.928;9.140;2022-12-29T08:17:53;97936.31;;;12.51
77223;BMP280;66218;48.928;9.140;2022-12-29T08:20:18;97937.72;;;12.52
77223;BMP280;66218;48.928;9.140;2022-12-29T08:22:43;97928.72;;;12.51
77223;BMP280;66218;48.928;9.140;2022-12-29T08:25:09;97934.94;;;12.52
77223;BMP280;66218;48.928;9.140;2022-12-29T08:27:34;97932.84;;;12.54
77223;BMP280;66218;48.928;9.140;2022-12-29T08:29:59;97946.81;;;12.66
77223;BMP280;66218;48.928;9.140;2022-12-29T08:32:26;97946.81;;;12.66
77223;BMP280;66218;48.928;9.140;2022-12-29T08:34:53;97930.22;;;12.66
77223;BMP280;66218;48.928;9.140;2022-12-29T08:37:18;97933.03;;;12.68
77223;BMP280;66218;48.928;9.140;2022-12-29T08:39:44;97939.38;;;12.79
77223;BMP280;66218;48.928;9.140;2022-12-29T08:42:09;97939.38;;;12.79
77223;BMP280;66218;48.928;9.140;2022-12-29T08:44:34;97935.91;;;12.77
77223;BMP280;66218;48.928;9.140;2022-12-29T08:47:00;97942.19;;;12.83
77223;BMP280;66218;48.928;9.140;2022-12-29T08:49:25;97950.00;;;13.05
77223;BMP280;66218;48.928;9.140;2022-12-29T08:51:50;97959.06;;;13.14
77223;BMP280;66218;48.928;9.140;2022-12-29T08:54:16;97961.94;;;13.20
77223;BMP280;66218;48.928;9.140;2022-12-29T08:56:41;97961.31;;;13.29
77223;BMP280;66218;48.928;9.140;2022-12-29T08:59:06;97968.25;;;13.28
77223;BMP280;66218;48.928;9.140;2022-12-29T09:01:32;97964.13;;;13.33
77223;BMP280;66218;48.928;9.140;2022-12-29T09:03:58;97973.91;;;13.45
77223;BMP280;66218;48.928;9.140;2022-12-29T09:06:23;97972.59;;;13.56
77223;BMP280;66218;48.928;9.140;2022-12-29T09:08:49;97970.63;;;13.71
77223;BMP280;66218;48.928;9.140;2022-12-29T09:11:23;97970.72;;;13.83
77223;BMP280;66218;48.928;9.140;2022-12-29T09:13:49;97975.63;;;13.92
77223;BMP280;66218;48.928;9.140;2022-12-29T09:16:15;97977.06;;;14.00
77223;BMP280;66218;48.928;9.140;2022-12-29T09:18:41;97982.66;;;14.10
77223;BMP280;66218;48.928;9.140;2022-12-29T09:21:07;97984.13;;;14.21
77223;BMP280;66218;48.928;9.140;2022-12-29T09:23:33;97984.19;;;14.33
77223;BMP280;66218;48.928;9.140;2022-12-29T09:25:58;97984.91;;;14.48
77223;BMP280;66218;48.928;9.140;2022-12-29T09:28:24;97982.88;;;14.65
77223;BMP280;66218;48.928;9.140;2022-12-29T09:30:50;97980.19;;;14.81
77223;BMP280;66218;48.928;9.140;2022-12-29T09:33:15;97978.09;;;14.94
77223;BMP280;66218;48.928;9.140;2022-12-29T09:35:42;97991.34;;;15.09
77223;BMP280;66218;48.928;9.140;2022-12-29T09:38:08;97995.53;;;15.15
77223;BMP280;66218;48.928;9.140;2022-12-29T09:40:34;97986.50;;;15.22
77223;BMP280;66218;48.928;9.140;2022-12-29T09:46:00;97989.28;;;15.42
77223;BMP280;66218;48.928;9.140;2022-12-29T09:48:36;97987.91;;;15.50
77223;BMP280;66218;48.928;9.140;2022-12-29T09:51:10;97991.34;;;15.62
77223;BMP280;66218;48.928;9.140;2022-12-29T09:53:40;97989.97;;;15.65
77223;BMP280;66218;48.928;9.140;2022-12-29T09:56:14;97996.91;;;15.62
77223;BMP280;66218;48.928;9.140;2022-12-29T09:59:14;97994.81;;;15.51
77223;BMP280;66218;48.928;9.140;2022-12-29T10:01:58;97995.56;;;15.43
77223;BMP280;66218;48.928;9.140;2022-12-29T10:04:30;98001.09;;;15.41
77223;BMP280;66218;48.928;9.140;2022-12-29T10:07:08;97996.94;;;15.48
77223;BMP280;66218;48.928;9.140;2022-12-29T10:09:53;98001.78;;;15.54
77223;BMP280;66218;48.928;9.140;2022-12-29T10:15:24;98004.56;;;15.58
77223;BMP280;66218;48.928;9.140;2022-12-29T10:18:22;97995.53;;;15.49
77223;BMP280;66218;48.928;9.140;2022-12-29T10:23:52;97992.03;;;15.12
77223;BMP280;66218;48.928;9.140;2022-12-29T10:26:20;97995.50;;;14.96
77223;BMP280;66218;48.928;9.140;2022-12-29T10:31:37;97999.63;;;14.95
77223;BMP280;66218;48.928;9.140;2022-12-29T10:34:19;98004.56;;;15.15
77223;BMP280;66218;48.928;9.140;2022-12-29T10:36:48;97991.34;;;15.34
77223;BMP280;66218;48.928;9.140;2022-12-29T10:41:51;98001.75;;;15.86
77223;BMP280;66218;48.928;9.140;2022-12-29T10:44:20;97998.25;;;16.04
77223;BMP280;66218;48.928;9.140;2022-12-29T10:46:57;97994.72;;;16.16
77223;BMP280;66218;48.928;9.140;2022-12-29T10:49:26;97999.63;;;16.09
77223;BMP280;66218;48.928;9.140;2022-12-29T10:51:57;98001.72;;;15.96
77223;BMP280;66218;48.928;9.140;2022-12-29T10:54:30;97995.44;;;16.06
77223;BMP280;66218;48.928;9.140;2022-12-29T10:57:08;97989.16;;;16.18
77223;BMP280;66218;48.928;9.140;2022-12-29T10:59:36;98000.25;;;16.22
77223;BMP280;66218;48.928;9.140;2022-12-29T11:02:23;98005.81;;;16.22
77223;BMP280;66218;48.928;9.140;2022-12-29T11:05:32;98004.47;;;16.11
77223;BMP280;66218;48.928;9.140;2022-12-29T11:08:02;98001.03;;;16.00
77223;BMP280;66218;48.928;9.140;2022-12-29T11:12:59;98003.81;;;16.00
77223;BMP280;66218;48.928;9.140;2022-12-29T11:15:25;98012.13;;;16.14
77223;BMP280;66218;48.928;9.140;2022-12-29T11:17:53;98014.88;;;16.24
77223;BMP280;66218;48.928;9.140;2022-12-29T11:20:27;98014.88;;;16.30
77223;BMP280;66218;48.928;9.140;2022-12-29T11:22:53;98017.59;;;16.41
77223;BMP280;66218;48.928;9.140;2022-12-29T11:25:18;98010.59;;;16.56
77223;BMP280;66218;48.928;9.140;2022-12-29T11:28:00;98010.47;;;16.74
77223;BMP280;66218;48.928;9.140;2022-12-29T11:30:28;98009.69;;;16.90
77223;BMP280;66218;48.928;9.140;2022-12-29T11:32:55;98010.41;;;16.88
77223;BMP280;66218;48.928;9.140;2022-12-29T11:35:41;98014.66;;;16.77
77223;BMP280;66218;48.928;9.140;2022-12-29T11:38:33;97999.41;;;16.62
77223;BMP280;66218;48.928;9.140;2022-12-29T11:40:59;98017.56;;;16.55
77223;BMP280;66218;48.928;9.140;2022-12-29T11:43:31;98014.78;;;16.53
77223;BMP280;66218;48.928;9.140;2022-12-29T11:45:59;98005.00;;;16.54
77223;BMP280;66218;48.928;9.140;2022-12-29T11:48:29;97998.72;;;16.53
77223;BMP280;66218;48.928;9.140;2022-12-29T11:50:58;97995.97;;;16.51
77223;BMP280;66218;48.928;9.140;2022-12-29T11:53:29;98005.72;;;16.48
77223;BMP280;66218;48.928;9.140;2022-12-29T11:56:04;98002.28;;;16.44
77223;BMP280;66218;48.928;9.140;2022-12-29T11:58:31;98009.22;;;16.43
77223;BMP280;66218;48.928;9.140;2022-12-29T12:01:01;97995.34;;;16.37
77223;BMP280;66218;48.928;9.140;2022-12-29T12:03:30;98002.34;;;16.31
77223;BMP280;66218;48.928;9.140;2022-12-29T12:06:00;98007.91;;;16.23
77223;BMP280;66218;48.928;9.140;2022-12-29T12:08:30;98007.28;;;16.04
77223;BMP280;66218;48.928;9.140;2022-12-29T12:11:10;97995.47;;;16.00
77223;BMP280;66218;48.928;9.140;2022-12-29T12:13:46;98008.00;;;15.97
77223;BMP280;66218;48.928;9.140;2022-12-29T12:16:28;98004.53;;;15.80
77223;BMP280;66218;48.928;9.140;2022-12-29T12:21:42;98009.44;;;15.53
77223;BMP280;66218;48.928;9.140;2022-12-29T12:27:15;98012.91;;;15.19
77223;BMP280;66218;48.928;9.140;2022-12-29T12:29:54;98012.19;;;15.08
77223;BMP280;66218;48.928;9.140;2022-12-29T12:35:12;98004.56;;;15.27
77223;BMP280;66218;48.928;9.140;2022-12-29T12:38:21;98003.88;;;15.43
77223;BMP280;66218;48.928;9.140;2022-12-29T12:43:49;97995.47;;;15.84
77223;BMP280;66218;48.928;9.140;2022-12-29T12:57:26;97982.91;;;16.13
77223;BMP280;66218;48.928;9.140;2022-12-29T13:05:45;97993.28;;;16.29
77223;BMP280;66218;48.928;9.140;2022-12-29T13:08:38;97985.63;;;16.29
77223;BMP280;66218;48.928;9.140;2022-12-29T13:11:20;97984.97;;;16.21
77223;BMP280;66218;48.928;9.140;2022-12-29T13:24:32;97980.06;;;16.29
77223;BMP280;66218;48.928;9.140;2022-12-29T13:27:09;97975.84;;;16.37
77223;BMP280;66218;48.928;9.140;2022-12-29T13:29:44;97968.88;;;16.38
77223;BMP280;66218;48.928;9.140;2022-12-29T13:32:26;97973.09;;;16.34
77223;BMP280;66218;48.928;9.140;2022-12-29T13:37:51;97966.91;;;16.10
77223;BMP280;66218;48.928;9.140;2022-12-29T13:40:23;97970.44;;;15.92
77223;BMP280;66218;48.928;9.140;2022-12-29T13:45:10;97967.03;;;15.57
77223;BMP280;66218;48.928;9.140;2022-12-29T13:48:35;97971.22;;;15.50
77223;BMP280;66218;48.928;9.140;2022-12-29T13:51:02;97960.78;;;15.48
77223;BMP280;66218;48.928;9.140;2022-12-29T13:56:11;97962.16;;;15.29
77223;BMP280;66218;48.928;9.140;2022-12-29T13:58:46;97969.13;;;15.16
77223;BMP280;66218;48.928;9.140;2022-12-29T14:01:20;97971.88;;;15.05
77223;BMP280;66218;48.928;9.140;2022-12-29T14:03:52;97973.28;;;15.04
77223;BMP280;66218;48.928;9.140;2022-12-29T14:06:32;97967.72;;;15.04
77223;BMP280;66218;48.928;9.140;2022-12-29T14:09:03;97967.72;;;15.04
77223;BMP280;66218;48.928;9.140;2022-12-29T14:11:32;97962.16;;;14.92
77223;BMP280;66218;48.928;9.140;2022-12-29T14:13:59;97971.16;;;14.85
77223;BMP280;66218;48.928;9.140;2022-12-29T14:16:34;97971.16;;;14.85
77223;BMP280;66218;48.928;9.140;2022-12-29T14:19:07;97964.19;;;14.73
77223;BMP280;66218;48.928;9.140;2022-12-29T14:21:35;97975.28;;;14.67
77223;BMP280;66218;48.928;9.140;2022-12-29T14:24:53;97984.31;;;14.62
77223;BMP280;66218;48.928;9.140;2022-12-29T14:34:47;97988.41;;;14.48
77223;BMP280;66218;48.928;9.140;2022-12-29T14:37:35;97988.38;;;14.46
77223;BMP280;66218;48.928;9.140;2022-12-29T14:40:19;97979.34;;;14.42
77223;BMP280;66218;48.928;9.140;2022-12-29T14:42:50;97973.78;;;14.40
77223;BMP280;66218;48.928;9.140;2022-12-29T14:47:47;97975.84;;;14.31
77223;BMP280;66218;48.928;9.140;2022-12-29T14:50:18;97975.84;;;14.31
77223;BMP280;66218;48.928;9.140;2022-12-29T14:52:47;97963.31;;;14.24
77223;BMP280;66218;48.928;9.140;2022-12-29T14:55:46;97970.19;;;14.13
77223;BMP280;66218;48.928;9.140;2022-12-29T15:00:44;97968.75;;;14.04
77223;BMP280;66218;48.928;9.140;2022-12-29T15:06:03;97963.16;;;13.96
77223;BMP280;66218;48.928;9.140;2022-12-29T15:08:33;97965.19;;;13.87
77223;BMP280;66218;48.928;9.140;2022-12-29T15:11:19;97965.19;;;13.87
77223;BMP280;66218;48.928;9.140;2022-12-29T15:13:45;97944.31;;;13.74
77223;BMP280;66218;48.928;9.140;2022-12-29T15:16:40;97967.75;;;13.56
77223;BMP280;66218;48.928;9.140;2022-12-29T15:19:21;97970.47;;;13.48
77223;BMP280;66218;48.928;9.140;2022-12-29T15:21:47;97971.16;;;13.47
77223;BMP280;66218;48.928;9.140;2022-12-29T15:24:12;97989.16;;;13.44
77223;BMP280;66218;48.928;9.140;2022-12-29T15:26:44;98057.69;;;13.37
77223;BMP280;66218;48.928;9.140;2022-12-29T15:29:34;98084.81;;;12.36
77223;BMP280;66218;48.928;9.140;2022-12-29T15:32:16;98082.56;;;10.73
77223;BMP280;66218;48.928;9.140;2022-12-29T15:34:44;98082.56;;;10.73
77223;BMP280;66218;48.928;9.140;2022-12-29T15:37:17;98066.63;;;10.08
77223;BMP280;66218;48.928;9.140;2022-12-29T15:39:43;98066.63;;;10.08
77223;BMP280;66218;48.928;9.140;2022-12-29T15:45:05;98030.41;;;9.92
77223;BMP280;66218;48.928;9.140;2022-12-29T15:47:34;98030.41;;;9.92
77223;BMP280;66218;48.928;9.140;2022-12-29T15:50:12;98022.00;;;9.85
77223;BMP280;66218;48.928;9.140;2022-12-29T15:52:39;98049.75;;;9.94
77223;BMP280;66218;48.928;9.140;2022-12-29T15:55:05;98076.88;;;10.03
77223;BMP280;66218;48.928;9.140;2022-12-29T15:57:36;98076.88;;;10.03
77223;BMP280;66218;48.928;9.140;2022-12-29T16:00:03;98062.19;;;9.95
77223;BMP280;66218;48.928;9.140;2022-12-29T16:02:29;98082.25;;;9.99
77223;BMP280;66218;48.928;9.140;2022-12-29T16:04:55;98055.19;;;9.92
77223;BMP280;66218;48.928;9.140;2022-12-29T16:07:29;98039.94;;;9.86
77223;BMP280;66218;48.928;9.140;2022-12-29T16:09:56;98039.94;;;9.86
77223;BMP280;66218;48.928;9.140;2022-12-29T16:12:31;98057.22;;;9.89
77223;BMP280;66218;48.928;9.140;2022-12-29T16:14:59;98141.94;;;10.17